Terminal Aerodrome Forecast
Issued by NWS Birmingham, AL

Home | Current Version | Previous Version | Text Only | Print | Product List | Glossary On
Versions: 1 2 3 4 5 6 7 8 9 10 11 12 13 14 15 16 17
000
FTUS44 KBMX 181740
TAFBHM
TAF
KBHM 181740Z 1818/1918 20013G22KT P6SM SCT025 OVC040
      TEMPO 1818/1822 BKN025 OVC050
     FM182200 22012G22KT P6SM VCSH OVC025
     FM190000 23011G22KT P6SM VCTS OVC025CB
      TEMPO 1900/1902 4SM -RA OVC015
     FM190200 31015G25KT P6SM BKN025 OVC050
     FM190700 34011KT P6SM SCT025 BKN250=

USA.gov is the U.S. government's official web portal to all federal, state and local government web resources and services.